Accueil
METAR-TAF:

METAR-TAF

Aéroports :

Cranfield, Angleterre

latitude: 52-04N, longitude: 000-37W, altitude: 111 m

Observation

Le bulletin a été fait il y a 23 minutes, à 08:50 UTC
Vent 4 kt de est
Température 0°C
Humidité 93%
Pression 1021 hPa
Visibilité: 9000 m
Quelques nuages à une hauteur de 4600 ft

METAR: EGTC 140850Z 08004KT 9000 FEW046 00/M01 Q1021

Heure: 09:13 (09:13 UTC)

Prévision

Le bulletin a été fait il y a 10 minutes, à 09:03 UTC
Prévision valable du 14 à 09 UTC au 14 à 18 UTC
Vent 5 kt de est
Visibilité: 9000 m
Nuages épars à une hauteur de 4500 ft
Evoluant progressivement
du 14 à 09 UTC au 14 à 11 UTC
Visibilité 10 km ou plus

TAF: EGTC 140903Z 1409/1418 08005KT 9000 SCT045 BECMG 1409/1411 9999

Observations et prévisions météorologiques de plus de 4000 aéroports (messages METAR et TAF).

Les stations disponibles sont représentées par des disques jaunes et rouges sur la carte.

Passer la souris dessus pour voir le nom de la station.

Cliquer dessus pour voir les observations et prévisions météorologiques.

Pour changer de carte: cliquez sur les boutons verts avec une croix noire pour zoomer, sur le bouton vert avec un tiret pour effectuer un zoom arrière, ou sur les flèches vertes pour les cartes adjacentes.


METAR-TAF: